Time;durP1;ratioP1;P1;durP2;ratioP2;P2;SDS_P1;SDS_P2;PMS_P1;PMS_P2;Temp;Humidity;BMP_temperature;BMP_pressure;BME280_temperature;BME280_humidity;BME280_pressure;Samples;Min_cycle;Max_cycle;Signal;HPM_P1;HPM_P2
2021/04/20 00:01:14;;;;;;;14.90;13.43;;;;;;;4.82;99.95;95597.53;5086615;28;20217;-70
2021/04/20 00:03:41;;;;;;;12.70;11.63;;;;;;;4.83;100.00;95593.13;5088189;28;20217;-70
2021/04/20 00:06:08;;;;;;;12.80;11.60;;;;;;;4.81;100.00;95598.53;5094559;28;20541;-70
2021/04/20 00:08:35;;;;;;;13.80;12.50;;;;;;;4.76;100.00;95603.41;5092330;28;20251;-70
2021/04/20 00:11:04;;;;;;;12.90;11.57;;;;;;;4.77;100.00;95594.56;5083561;28;20228;-70
2021/04/20 00:13:31;;;;;;;12.50;11.47;;;;;;;4.89;100.00;95602.19;5090993;28;20689;-70
2021/04/20 00:15:59;;;;;;;12.77;11.50;;;;;;;4.87;100.00;95597.13;5084471;28;20753;-70
2021/04/20 00:18:26;;;;;;;11.97;10.97;;;;;;;4.91;100.00;95589.78;5084016;28;20227;-69
2021/04/20 00:20:53;;;;;;;11.90;10.87;;;;;;;4.87;100.00;95588.44;5075327;28;20291;-70
2021/04/20 00:23:20;;;;;;;12.37;11.27;;;;;;;4.82;99.76;95587.09;5080773;28;20282;-69
2021/04/20 00:25:47;;;;;;;11.20;10.13;;;;;;;4.76;99.78;95587.72;5103000;28;20227;-70
2021/04/20 00:28:22;;;;;;;14.40;13.00;;;;;;;4.71;100.00;95587.31;5098396;28;20263;-69
2021/04/20 00:30:50;;;;;;;12.63;11.47;;;;;;;4.66;100.00;95580.88;5087138;28;20629;-70
2021/04/20 00:33:17;;;;;;;12.43;11.13;;;;;;;4.63;100.00;95584.63;5082809;28;20306;-70
2021/04/20 00:35:45;;;;;;;14.57;13.03;;;;;;;4.64;100.00;95594.09;5084711;28;20309;-70
2021/04/20 00:38:12;;;;;;;13.37;12.03;;;;;;;4.63;100.00;95587.25;5089641;28;20231;-70
2021/04/20 00:40:39;;;;;;;13.43;12.23;;;;;;;4.62;100.00;95580.38;5102057;28;20227;-70
2021/04/20 00:43:07;;;;;;;13.83;12.37;;;;;;;4.61;100.00;95591.81;5098440;28;20288;-70
2021/04/20 00:45:36;;;;;;;13.43;11.70;;;;;;;4.66;100.00;95592.16;5095296;28;20227;-70
2021/04/20 00:48:04;;;;;;;14.63;13.20;;;;;;;4.63;100.00;95587.25;5104235;28;20253;-70
2021/04/20 00:50:32;;;;;;;14.77;13.40;;;;;;;4.57;100.00;95580.00;5090126;28;20232;-70
2021/04/20 00:53:01;;;;;;;14.23;12.97;;;;;;;4.54;100.00;95586.34;5104279;28;20290;-70
2021/04/20 00:55:29;;;;;;;13.50;12.20;;;;;;;4.52;100.00;95584.84;5097856;28;20227;-70
2021/04/20 00:57:57;;;;;;;12.10;11.00;;;;;;;4.55;100.00;95584.56;5100486;28;20255;-70
2021/04/20 01:00:26;;;;;;;12.27;11.17;;;;;;;4.56;100.00;95580.97;5091169;28;20662;-69
2021/04/20 01:02:54;;;;;;;13.43;11.83;;;;;;;4.61;100.00;95580.53;5086502;28;20495;-70
2021/04/20 01:05:23;;;;;;;13.93;12.47;;;;;;;4.64;100.00;95573.19;5081646;28;20655;-70
2021/04/20 01:07:50;;;;;;;12.73;11.53;;;;;;;4.71;100.00;95578.66;5083742;28;20777;-70
2021/04/20 01:10:18;;;;;;;14.10;12.80;;;;;;;4.73;100.00;95572.31;5087220;28;20213;-70
2021/04/20 01:12:45;;;;;;;14.53;13.23;;;;;;;4.73;100.00;95569.69;5101075;28;20311;-69
2021/04/20 01:15:14;;;;;;;15.47;13.87;;;;;;;4.74;100.00;95571.31;5100718;28;20645;-69
2021/04/20 01:17:41;;;;;;;14.70;13.30;;;;;;;4.78;100.00;95570.06;5067853;28;20543;-70
2021/04/20 01:20:10;;;;;;;16.23;14.40;;;;;;;4.81;100.00;95577.59;5091099;28;20493;-70
2021/04/20 01:22:40;;;;;;;15.77;14.33;;;;;;;4.79;99.86;95569.09;5065582;28;20233;-70
2021/04/20 01:25:11;;;;;;;15.37;13.77;;;;;;;4.82;99.74;95576.63;5083308;28;20244;-70
2021/04/20 01:27:38;;;;;;;13.47;12.23;;;;;;;4.77;99.73;95571.06;5083488;28;20247;-70
2021/04/20 01:30:08;;;;;;;17.10;14.83;;;;;;;4.75;100.00;95569.53;5071791;28;20633;-70
2021/04/20 01:32:37;;;;;;;15.57;14.23;;;;;;;4.73;99.90;95567.06;5088207;28;20220;-70
2021/04/20 01:35:05;;;;;;;13.87;12.10;;;;;;;4.68;100.00;95569.34;5083789;28;20246;-70
2021/04/20 01:37:32;;;;;;;13.40;12.10;;;;;;;4.63;100.00;95570.75;5083342;28;20219;-70
2021/04/20 01:40:00;;;;;;;13.27;12.07;;;;;;;4.62;100.00;95569.91;5065122;28;20603;-69
2021/04/20 01:42:28;;;;;;;15.30;13.60;;;;;;;4.67;100.00;95578.16;5086484;28;20756;-70
2021/04/20 01:44:55;;;;;;;13.93;12.73;;;;;;;4.70;100.00;95577.03;5104618;28;20224;-70
2021/04/20 01:47:23;;;;;;;16.80;13.10;;;;;;;4.71;100.00;95579.47;5101166;28;20232;-69
2021/04/20 01:49:50;;;;;;;16.87;14.90;;;;;;;4.75;100.00;95580.81;5097820;28;20228;-70
2021/04/20 01:52:17;;;;;;;17.40;15.70;;;;;;;4.74;100.00;95578.34;5106375;28;20229;-70
2021/04/20 01:54:44;;;;;;;17.87;16.10;;;;;;;4.76;100.00;95579.03;5091314;28;20228;-70
2021/04/20 01:57:11;;;;;;;15.20;13.60;;;;;;;4.77;99.87;95576.28;5069244;28;20245;-70
2021/04/20 01:59:40;;;;;;;17.37;15.67;;;;;;;4.77;100.00;95584.13;5087621;28;20274;-69
2021/04/20 02:02:06;;;;;;;16.43;14.83;;;;;;;4.75;99.94;95580.81;5105424;28;20735;-70
2021/04/20 02:04:34;;;;;;;15.47;13.97;;;;;;;4.70;100.00;95577.03;5086789;28;20298;-70
2021/04/20 02:07:02;;;;;;;16.00;14.30;;;;;;;4.68;99.92;95577.19;5090334;28;20241;-70
2021/04/20 02:09:29;;;;;;;16.93;15.17;;;;;;;4.72;100.00;95575.91;5105805;28;20227;-70
2021/04/20 02:11:59;;;;;;;13.93;12.67;;;;;;;4.71;100.00;95576.88;5094136;28;20244;-70
2021/04/20 02:14:27;;;;;;;15.90;14.30;;;;;;;4.76;100.00;95572.03;5086549;28;20236;-70
2021/04/20 02:16:56;;;;;;;18.10;16.27;;;;;;;4.78;100.00;95572.69;5068701;28;20221;-70
2021/04/20 02:19:24;;;;;;;14.90;13.33;;;;;;;4.81;99.91;95567.16;5086388;28;20277;-69
2021/04/20 02:21:53;;;;;;;17.63;15.97;;;;;;;4.81;99.78;95564.53;5077694;28;20262;-69
2021/04/20 02:24:20;;;;;;;18.93;16.60;;;;;;;4.80;99.65;95568.13;5102826;28;20453;-70
2021/04/20 02:26:48;;;;;;;20.07;17.97;;;;;;;4.78;99.61;95569.25;5105647;28;20224;-69
2021/04/20 02:29:15;;;;;;;15.67;14.03;;;;;;;4.81;99.60;95569.75;5095863;28;20229;-70
2021/04/20 02:31:43;;;;;;;17.60;15.90;;;;;;;4.81;99.68;95567.16;5097301;28;20461;-70
2021/04/20 02:34:12;;;;;;;20.23;18.33;;;;;;;4.80;99.49;95568.13;5096524;28;20237;-70
2021/04/20 02:36:42;;;;;;;19.87;17.77;;;;;;;4.81;99.49;95567.16;5105392;28;20279;-70
2021/04/20 02:39:10;;;;;;;19.00;17.00;;;;;;;4.79;99.58;95571.72;5106186;28;20281;-70
2021/04/20 02:41:39;;;;;;;19.50;17.70;;;;;;;4.80;99.85;95572.53;5100557;28;20653;-70
2021/04/20 02:44:09;;;;;;;19.63;17.37;;;;;;;4.79;99.77;95571.72;5100469;28;20244;-70
2021/04/20 02:46:37;;;;;;;15.90;14.20;;;;;;;4.82;99.74;95566.16;5097412;28;20692;-70
2021/04/20 02:49:05;;;;;;;16.07;14.27;;;;;;;4.87;99.62;95575.38;5098323;28;20511;-70
2021/04/20 02:51:34;;;;;;;19.10;15.80;;;;;;;4.88;99.58;95571.78;5087080;28;20548;-70
2021/04/20 02:54:02;;;;;;;19.97;15.10;;;;;;;4.87;99.62;95567.53;5093920;28;20276;-70
2021/04/20 02:56:30;;;;;;;21.33;16.63;;;;;;;4.85;99.65;95565.91;5091587;28;20905;-70
2021/04/20 02:58:59;;;;;;;17.73;15.93;;;;;;;4.84;99.43;95561.59;5095090;28;20284;-70
2021/04/20 03:01:30;;;;;;;17.53;15.83;;;;;;;4.85;99.63;95560.66;5083074;28;20285;-70
2021/04/20 03:03:58;;;;;;;17.77;15.70;;;;;;;4.84;99.52;95561.59;5068066;28;20233;-70
2021/04/20 03:06:25;;;;;;;17.77;15.87;;;;;;;4.84;99.63;95566.00;5078774;28;20271;-70
2021/04/20 03:08:54;;;;;;;17.83;16.10;;;;;;;4.81;99.77;95563.72;5084407;28;20307;-70
2021/04/20 03:11:24;;;;;;;18.23;16.23;;;;;;;4.83;100.00;95567.00;5101334;27;20229;-69
2021/04/20 03:13:51;;;;;;;19.23;16.77;;;;;;;4.85;99.82;95560.66;5104163;28;20712;-70
2021/04/20 03:16:30;;;;;;;17.37;15.47;;;;;;;4.84;99.74;95559.00;5097743;28;20299;-70
2021/04/20 03:18:57;;;;;;;16.00;14.40;;;;;;;4.85;99.88;95563.28;5089384;28;20704;-69
2021/04/20 03:21:25;;;;;;;21.20;17.73;;;;;;;4.86;99.74;95556.25;5085010;28;20686;-69
2021/04/20 03:23:55;;;;;;;17.63;15.83;;;;;;;4.85;99.81;95555.44;5099640;28;20223;-69
2021/04/20 03:26:36;;;;;;;18.30;16.50;;;;;;;4.88;100.00;95558.72;5084279;28;20296;-70
2021/04/20 03:29:05;;;;;;;19.53;17.53;;;;;;;4.88;100.00;95554.31;5101018;28;20224;-69
2021/04/20 03:31:32;;;;;;;22.43;20.03;;;;;;;4.86;99.99;95551.03;5101959;28;20221;-69
2021/04/20 03:34:06;;;;;;;19.47;17.37;;;;;;;4.89;100.00;95548.09;5084564;28;20816;-70
2021/04/20 03:36:36;;;;;;;19.00;17.07;;;;;;;4.88;100.00;95553.47;5097760;28;20213;-70
2021/04/20 03:39:06;;;;;;;18.47;16.60;;;;;;;4.90;99.88;95556.75;5105459;28;20711;-70
2021/04/20 03:41:37;;;;;;;20.03;18.10;;;;;;;4.90;99.93;95551.53;5103420;28;20282;-69
2021/04/20 03:44:09;;;;;;;18.57;16.73;;;;;;;4.90;99.81;95557.59;5102701;28;20352;-70
2021/04/20 03:46:42;;;;;;;19.73;17.53;;;;;;;4.90;99.98;95551.53;5078852;28;20658;-69
2021/04/20 03:49:15;;;;;;;16.87;15.10;;;;;;;4.94;100.00;95555.47;5095875;28;20259;-69
2021/04/20 03:51:50;;;;;;;15.87;14.27;;;;;;;4.94;99.83;95547.63;5074528;28;20235;-69
2021/04/20 03:54:20;;;;;;;17.77;15.00;;;;;;;4.95;99.70;95549.28;5095100;28;20240;-70
2021/04/20 03:56:49;;;;;;;17.40;15.60;;;;;;;4.93;99.65;95551.22;5095532;28;20229;-70
2021/04/20 03:59:19;;;;;;;16.77;15.23;;;;;;;4.93;99.80;95552.03;5094428;28;20298;-69
2021/04/20 04:01:49;;;;;;;14.80;13.23;;;;;;;4.91;99.76;95543.53;5100171;28;20223;-66
2021/04/20 04:04:18;;;;;;;16.77;14.17;;;;;;;4.90;99.84;95544.50;5072244;28;20213;-66
2021/04/20 04:06:47;;;;;;;14.20;12.70;;;;;;;4.92;99.68;95544.34;5076232;28;20287;-67
2021/04/20 04:09:17;;;;;;;18.00;15.47;;;;;;;4.91;99.99;95547.94;5101056;28;20316;-67
2021/04/20 04:11:48;;;;;;;17.23;15.43;;;;;;;4.89;100.00;95544.66;5094743;28;20724;-67
2021/04/20 04:14:17;;;;;;;20.10;16.50;;;;;;;4.91;99.97;95550.56;5100837;28;20221;-66
2021/04/20 04:16:46;;;;;;;20.73;18.70;;;;;;;4.87;100.00;95552.66;5093400;28;20225;-67
2021/04/20 04:19:14;;;;;;;19.50;17.47;;;;;;;4.82;100.00;95549.66;5085197;27;20684;-67
2021/04/20 04:21:47;;;;;;;19.30;16.67;;;;;;;4.84;100.00;95540.69;5098922;28;20227;-67
2021/04/20 04:24:17;;;;;;;25.07;21.33;;;;;;;4.82;100.00;95544.44;5095864;28;20337;-67
2021/04/20 04:26:49;;;;;;;19.87;17.77;;;;;;;4.79;100.00;95548.19;5084292;28;20701;-67
2021/04/20 04:29:19;;;;;;;19.50;17.53;;;;;;;4.77;100.00;95547.53;5103077;28;20220;-67
2021/04/20 04:31:47;;;;;;;19.17;16.67;;;;;;;4.78;100.00;95543.94;5083078;28;20236;-67
2021/04/20 04:34:17;;;;;;;18.03;16.13;;;;;;;4.79;100.00;95550.81;5096306;28;20317;-67
2021/04/20 04:36:45;;;;;;;17.63;15.80;;;;;;;4.80;100.00;95557.66;5102765;28;20274;-67
2021/04/20 04:39:13;;;;;;;22.00;19.80;;;;;;;4.77;100.00;95555.38;5102985;28;20219;-67
2021/04/20 04:41:41;;;;;;;22.37;20.23;;;;;;;4.78;100.00;95554.38;5079585;28;20697;-67
2021/04/20 04:44:10;;;;;;;21.07;18.30;;;;;;;4.81;100.00;95559.31;5100259;28;20225;-67
2021/04/20 04:46:37;;;;;;;21.03;18.80;;;;;;;4.80;100.00;95556.84;5098193;28;20216;-67
2021/04/20 04:49:06;;;;;;;21.30;19.03;;;;;;;4.78;100.00;95549.16;5095744;28;20462;-67
2021/04/20 04:51:35;;;;;;;22.93;20.70;;;;;;;4.83;100.00;95543.47;5098926;28;20270;-66
2021/04/20 04:54:02;;;;;;;21.27;19.03;;;;;;;4.84;100.00;95548.53;5100507;28;20235;-67
2021/04/20 04:56:30;;;;;;;21.43;19.27;;;;;;;4.84;100.00;95551.16;5099909;28;20517;-67
2021/04/20 04:59:01;;;;;;;22.27;20.03;;;;;;;4.85;100.00;95555.44;5089356;28;20310;-67
2021/04/20 05:01:30;;;;;;;20.63;18.43;;;;;;;4.85;100.00;95558.06;5090721;28;20314;-66
2021/04/20 05:04:08;;;;;;;22.73;20.37;;;;;;;4.87;100.00;95562.31;5095372;28;20222;-66
2021/04/20 05:06:39;;;;;;;24.30;20.73;;;;;;;4.90;100.00;95562.00;5089378;28;20224;-67
2021/04/20 05:09:10;;;;;;;21.07;18.10;;;;;;;4.88;100.00;95563.94;5087905;28;20376;-67
2021/04/20 05:11:37;;;;;;;26.27;23.53;;;;;;;4.87;100.00;95562.31;5100138;28;20220;-67
2021/04/20 05:14:04;;;;;;;20.87;18.60;;;;;;;4.89;100.00;95562.97;5069407;28;20379;-66
2021/04/20 05:16:32;;;;;;;22.63;20.27;;;;;;;4.89;100.00;95570.81;5105628;28;20219;-66
2021/04/20 05:19:01;;;;;;;22.37;20.07;;;;;;;4.90;100.00;95572.44;5104975;27;20228;-67
2021/04/20 05:21:28;;;;;;;20.10;17.97;;;;;;;4.87;100.00;95563.13;5093740;27;20250;-67
2021/04/20 05:23:55;;;;;;;21.30;18.97;;;;;;;4.84;100.00;95572.06;5112848;27;20220;-67
2021/04/20 05:26:22;;;;;;;20.33;18.23;;;;;;;4.85;100.00;95573.72;5099998;28;20289;-67
2021/04/20 05:28:49;;;;;;;19.47;17.47;;;;;;;4.87;100.00;95570.16;5107257;28;20223;-67
2021/04/20 05:31:16;;;;;;;19.30;17.23;;;;;;;4.88;100.00;95574.41;5099305;28;20300;-67
2021/04/20 05:33:43;;;;;;;20.57;18.47;;;;;;;4.90;100.00;95573.28;5109612;27;20230;-67
2021/04/20 05:36:11;;;;;;;22.73;20.33;;;;;;;4.92;100.00;95570.50;5105921;27;20229;-67
2021/04/20 05:38:38;;;;;;;27.90;20.27;;;;;;;4.98;100.00;95564.66;5107472;28;20217;-67
2021/04/20 05:41:07;;;;;;;25.17;21.33;;;;;;;5.07;100.00;95569.00;5108964;27;20303;-66
2021/04/20 05:43:34;;;;;;;24.87;20.50;;;;;;;5.04;100.00;95577.16;5086205;27;20221;-66
2021/04/20 05:46:00;;;;;;;21.67;19.60;;;;;;;5.02;99.96;95574.66;5087920;28;20504;-67
2021/04/20 05:48:27;;;;;;;21.40;19.13;;;;;;;5.00;99.94;95576.63;5099046;28;20224;-66
2021/04/20 05:50:55;;;;;;;21.67;19.40;;;;;;;4.99;99.62;95569.75;5099426;28;20220;-67
2021/04/20 05:53:22;;;;;;;18.63;16.73;;;;;;;5.02;99.96;95576.47;5107070;28;20278;-67
2021/04/20 05:55:49;;;;;;;21.70;19.40;;;;;;;5.01;99.92;95569.59;5102744;28;20268;-67
2021/04/20 05:58:16;;;;;;;23.83;17.17;;;;;;;5.04;100.00;95574.53;5099808;28;20498;-67
2021/04/20 06:00:43;;;;;;;22.00;19.70;;;;;;;5.03;99.96;95570.25;5085003;28;20282;-66
2021/04/20 06:03:10;;;;;;;23.37;20.87;;;;;;;5.10;100.00;95576.53;5105956;28;20305;-67
2021/04/20 06:05:38;;;;;;;22.77;20.30;;;;;;;5.13;100.00;95573.63;5086893;28;20759;-67
2021/04/20 06:08:06;;;;;;;23.10;20.47;;;;;;;5.24;99.79;95565.53;5068518;28;20213;-67
2021/04/20 06:10:34;;;;;;;23.83;21.30;;;;;;;5.22;99.65;95575.31;5114081;27;20977;-66
2021/04/20 06:13:01;;;;;;;27.73;22.33;;;;;;;5.24;99.24;95569.94;5088086;28;20751;-66
2021/04/20 06:15:28;;;;;;;24.80;22.17;;;;;;;5.24;99.48;95572.56;5105075;28;20727;-66
2021/04/20 06:17:56;;;;;;;25.40;21.73;;;;;;;5.29;99.71;95573.72;5106396;28;20243;-66
2021/04/20 06:20:24;;;;;;;28.63;22.87;;;;;;;5.34;99.79;95566.25;5086413;28;20236;-67
2021/04/20 06:22:54;;;;;;;25.20;22.20;;;;;;;5.44;99.58;95576.59;5094617;28;20320;-67
2021/04/20 06:25:22;;;;;;;27.17;21.57;;;;;;;5.45;99.49;95572.19;5105961;28;20227;-67
2021/04/20 06:27:50;;;;;;;30.60;23.90;;;;;;;5.41;99.72;95577.75;5093233;28;20217;-67
2021/04/20 06:30:20;;;;;;;25.23;22.93;;;;;;;5.47;99.75;95583.31;5084582;28;20225;-66
2021/04/20 06:32:48;;;;;;;21.30;19.07;;;;;;;5.55;99.35;95583.38;5099621;28;20262;-67
2021/04/20 06:35:17;;;;;;;25.53;21.67;;;;;;;5.57;99.36;95591.88;5088207;28;20525;-67
2021/04/20 06:37:46;;;;;;;28.53;23.10;;;;;;;5.59;99.21;95590.78;5087915;28;20243;-66
2021/04/20 06:40:19;;;;;;;22.97;19.23;;;;;;;5.69;98.80;95585.44;5072578;28;20221;-67
2021/04/20 06:42:51;;;;;;;21.63;19.43;;;;;;;5.75;97.38;95595.25;5092317;27;20229;-67
2021/04/20 06:45:23;;;;;;;24.20;21.67;;;;;;;5.75;97.01;95590.03;5085853;28;20224;-66
2021/04/20 06:47:55;;;;;;;23.30;20.87;;;;;;;5.71;96.99;95593.94;5086259;28;20421;-66
2021/04/20 06:50:24;;;;;;;26.83;22.07;;;;;;;5.72;97.38;95595.56;5085535;28;20216;-65
2021/04/20 06:52:55;;;;;;;22.83;20.53;;;;;;;5.74;97.71;95598.84;5105456;28;20640;-66
2021/04/20 06:55:33;;;;;;;21.23;19.00;;;;;;;5.79;97.89;95601.84;5105904;28;20321;-65
2021/04/20 06:58:09;;;;;;;21.20;18.93;;;;;;;5.84;97.81;95588.25;5092222;28;20609;-66
2021/04/20 07:00:45;;;;;;;22.87;19.03;;;;;;;5.89;98.15;95594.69;5095649;28;20306;-67
2021/04/20 07:03:21;;;;;;;22.87;19.60;;;;;;;5.85;97.73;95590.75;5080819;28;20762;-66
2021/04/20 07:05:56;;;;;;;26.20;20.00;;;;;;;5.91;97.55;95595.38;5098563;28;20228;-66
2021/04/20 07:08:28;;;;;;;26.00;22.93;;;;;;;6.03;97.51;95598.53;5084553;28;20223;-67
2021/04/20 07:10:56;;;;;;;24.77;22.17;;;;;;;6.03;96.88;95589.84;5084156;28;20236;-67
2021/04/20 07:13:26;;;;;;;24.30;18.93;;;;;;;6.16;96.94;95592.88;5096693;28;20308;-67
2021/04/20 07:15:56;;;;;;;23.03;20.73;;;;;;;6.20;96.50;95589.75;5088548;28;20244;-67
2021/04/20 07:18:48;;;;;;;23.07;19.20;;;;;;;6.40;95.68;95590.34;5099445;28;20221;-67
2021/04/20 07:21:21;;;;;;;20.03;17.87;;;;;;;6.49;95.32;95589.38;5100989;28;20265;-67
2021/04/20 07:24:14;;;;;;;21.53;19.27;;;;;;;6.55;95.05;95588.72;5105255;28;20258;-66
2021/04/20 07:27:05;;;;;;;25.13;20.50;;;;;;;6.61;94.69;95591.69;5104750;28;20269;-66
2021/04/20 07:29:40;;;;;;;22.77;20.23;;;;;;;6.72;94.44;95588.75;5087574;28;20741;-67
2021/04/20 07:32:20;;;;;;;22.40;19.97;;;;;;;6.83;94.05;95591.06;5100755;28;21027;-67
2021/04/20 07:35:00;;;;;;;22.27;19.17;;;;;;;6.83;94.04;95596.31;5091269;28;20338;-66
2021/04/20 07:37:45;;;;;;;21.77;19.00;;;;;;;6.96;94.08;95596.66;5085429;28;20245;-67
2021/04/20 07:40:39;;;;;;;21.93;19.23;;;;;;;6.97;93.26;95598.28;5084125;28;20221;-67
2021/04/20 07:43:17;;;;;;;22.50;19.23;;;;;;;7.17;92.76;95590.09;5068208;28;20248;-67
2021/04/20 07:45:52;;;;;;;18.97;17.17;;;;;;;7.25;92.45;95590.91;5104961;27;20692;-66
2021/04/20 07:48:27;;;;;;;21.17;19.03;;;;;;;7.29;92.23;95583.53;5095877;28;20224;-67
2021/04/20 07:50:56;;;;;;;21.27;17.33;;;;;;;7.36;91.81;95589.75;5084568;28;20225;-67
2021/04/20 07:53:30;;;;;;;23.17;20.20;;;;;;;7.45;91.19;95590.56;5098337;28;20293;-67
2021/04/20 07:56:04;;;;;;;21.53;18.17;;;;;;;7.52;91.32;95587.13;5104511;28;20252;-67
2021/04/20 07:58:37;;;;;;;19.73;17.93;;;;;;;7.56;90.56;95585.78;5083778;28;20216;-67
2021/04/20 08:01:19;;;;;;;22.20;19.00;;;;;;;7.67;89.44;95590.69;5104665;28;20273;-67
2021/04/20 08:03:53;;;;;;;17.80;16.00;;;;;;;7.79;89.14;95598.22;5102659;28;20587;-67
2021/04/20 08:06:24;;;;;;;18.10;16.37;;;;;;;7.95;88.88;95598.16;5091146;28;20495;-67
2021/04/20 08:08:52;;;;;;;18.53;16.70;;;;;;;8.02;88.40;95588.63;5084423;28;20219;-66
2021/04/20 08:11:29;;;;;;;22.80;18.43;;;;;;;8.14;87.69;95587.28;5084266;28;20279;-66
2021/04/20 08:14:02;;;;;;;19.17;17.20;;;;;;;8.25;87.98;95593.97;5099407;28;20287;-67
2021/04/20 08:16:36;;;;;;;18.50;16.63;;;;;;;8.27;87.09;95592.81;5104635;28;20316;-67
2021/04/20 08:19:10;;;;;;;17.13;15.33;;;;;;;8.37;86.09;95592.63;5094188;28;20295;-67
2021/04/20 08:21:42;;;;;;;17.27;15.50;;;;;;;8.45;85.85;95587.31;5069373;28;20303;-66
2021/04/20 08:24:18;;;;;;;18.47;16.50;;;;;;;8.54;85.50;95593.38;5079312;28;20225;-67
2021/04/20 08:26:47;;;;;;;19.40;17.40;;;;;;;8.69;85.46;95588.19;5093434;28;20275;-67
2021/04/20 08:29:21;;;;;;;19.43;17.53;;;;;;;8.79;84.66;95589.59;5103834;28;20215;-67
2021/04/20 08:31:51;;;;;;;18.30;14.77;;;;;;;8.89;84.24;95583.28;5094998;28;20246;-67
2021/04/20 08:34:22;;;;;;;20.27;16.70;;;;;;;9.15;83.73;95581.13;5081837;28;20234;-66
2021/04/20 08:37:14;;;;;;;15.97;14.37;;;;;;;9.39;82.78;95586.16;5100594;28;20223;-65
2021/04/20 08:39:57;;;;;;;18.20;16.20;;;;;;;9.44;82.39;95577.75;5085279;28;20255;-66
2021/04/20 08:42:32;;;;;;;17.97;16.10;;;;;;;9.72;81.34;95582.41;5080032;28;20420;-67
2021/04/20 08:45:07;;;;;;;15.50;14.10;;;;;;;9.84;80.20;95579.16;5076420;28;20307;-66
2021/04/20 08:47:40;;;;;;;18.60;16.90;;;;;;;10.00;79.10;95572.88;5101502;28;20235;-67
2021/04/20 08:50:12;;;;;;;18.33;16.47;;;;;;;10.27;80.79;95570.63;5097973;28;20247;-67
2021/04/20 08:52:51;;;;;;;17.47;15.70;;;;;;;10.51;80.10;95570.28;5105016;28;20298;-66
2021/04/20 08:55:35;;;;;;;16.17;14.67;;;;;;;10.46;77.89;95570.06;5101811;28;20293;-67
2021/04/20 08:58:19;;;;;;;13.63;12.30;;;;;;;10.79;76.45;95565.16;5104683;28;20256;-67
2021/04/20 09:00:53;;;;;;;16.57;14.97;;;;;;;11.01;76.92;95564.13;5088641;28;20243;-67
2021/04/20 09:03:27;;;;;;;15.17;13.77;;;;;;;11.30;75.96;95567.66;5105152;28;20588;-67
2021/04/20 09:05:56;;;;;;;13.30;12.00;;;;;;;11.54;76.75;95564.59;5105430;28;20274;-66
2021/04/20 09:08:30;;;;;;;13.80;12.50;;;;;;;11.68;72.53;95568.13;5085935;27;20463;-67
2021/04/20 09:11:04;;;;;;;13.90;12.50;;;;;;;11.78;73.47;95565.16;5108937;27;20245;-67
2021/04/20 09:13:38;;;;;;;15.37;13.87;;;;;;;11.68;71.74;95568.13;5090823;28;20214;-67
2021/04/20 09:16:19;;;;;;;14.27;12.87;;;;;;;11.87;71.92;95569.31;5103745;27;20490;-67
2021/04/20 09:18:47;;;;;;;15.03;13.63;;;;;;;12.09;73.65;95576.19;5100493;28;20227;-66
2021/04/20 09:21:19;;;;;;;14.17;12.73;;;;;;;12.28;73.22;95569.34;5104155;28;20237;-66
2021/04/20 09:23:58;;;;;;;11.70;10.70;;;;;;;12.47;73.27;95573.09;5108018;28;20220;-67
2021/04/20 09:26:34;;;;;;;19.20;12.23;;;;;;;12.53;70.50;95569.66;5086534;28;20232;-67
2021/04/20 09:29:10;;;;;;;12.50;11.30;;;;;;;12.47;70.25;95575.75;5088209;28;20228;-67
2021/04/20 09:31:41;;;;;;;11.57;10.47;;;;;;;12.48;70.69;95574.72;5098494;28;20231;-68
2021/04/20 09:34:11;;;;;;;11.90;10.80;;;;;;;12.60;70.36;95570.50;5099048;28;20261;-68
2021/04/20 09:36:40;;;;;;;14.93;13.57;;;;;;;12.55;69.85;95575.56;5102472;28;20739;-67
2021/04/20 09:39:08;;;;;;;12.87;11.67;;;;;;;12.56;70.23;95563.97;5107276;28;20315;-67
2021/04/20 09:41:42;;;;;;;14.10;12.73;;;;;;;12.66;70.35;95580.28;5106783;28;20710;-67
2021/04/20 09:44:28;;;;;;;15.47;14.10;;;;;;;12.69;71.96;95571.94;5094185;27;20305;-66
2021/04/20 09:47:13;;;;;;;11.00;10.03;;;;;;;12.86;70.03;95563.66;5104757;27;20225;-67
2021/04/20 09:50:04;;;;;;;14.40;13.07;;;;;;;13.15;69.67;95568.59;5092876;28;20228;-68
2021/04/20 09:52:44;;;;;;;13.70;12.43;;;;;;;13.37;69.74;95575.38;5107735;28;20229;-67
2021/04/20 09:55:15;;;;;;;12.83;11.40;;;;;;;13.32;66.50;95575.16;5088766;28;20225;-67
2021/04/20 09:57:46;;;;;;;14.33;12.87;;;;;;;13.40;68.33;95576.00;5100088;28;20223;-67
2021/04/20 10:00:15;;;;;;;13.57;12.17;;;;;;;13.40;67.57;95573.34;5105839;28;20278;-66
2021/04/20 10:02:54;;;;;;;14.10;12.83;;;;;;;13.52;66.51;95569.88;5105490;28;20240;-68
2021/04/20 10:05:33;;;;;;;12.57;11.30;;;;;;;13.62;67.55;95570.28;5088855;28;20232;-67
2021/04/20 10:08:17;;;;;;;14.30;13.00;;;;;;;13.82;66.56;95564.97;5094065;28;20233;-67
2021/04/20 10:10:50;;;;;;;13.07;11.83;;;;;;;13.92;66.79;95564.53;5103173;28;20286;-67
2021/04/20 10:13:28;;;;;;;12.70;11.57;;;;;;;13.83;64.34;95566.59;5105801;28;20613;-67
2021/04/20 10:16:05;;;;;;;14.13;12.80;;;;;;;13.68;64.83;95563.34;5089353;28;20224;-67
2021/04/20 10:18:41;;;;;;;13.70;12.47;;;;;;;13.62;65.55;95558.84;5104226;28;20298;-67
2021/04/20 10:21:19;;;;;;;13.53;12.23;;;;;;;13.72;67.00;95564.56;5068952;28;20377;-67
2021/04/20 10:23:59;;;;;;;13.07;11.87;;;;;;;13.81;66.25;95562.53;5100588;28;20282;-67
2021/04/20 10:26:34;;;;;;;12.93;11.73;;;;;;;13.92;66.89;95559.25;5104776;28;20212;-67
2021/04/20 10:29:11;;;;;;;14.00;12.67;;;;;;;14.09;65.14;95554.31;5090448;28;20299;-67
2021/04/20 10:31:47;;;;;;;13.53;12.33;;;;;;;14.19;66.80;95549.38;5097763;28;20293;-67
2021/04/20 10:34:17;;;;;;;12.20;11.10;;;;;;;14.36;63.96;95544.44;5097620;28;20478;-66
2021/04/20 10:36:50;;;;;;;14.87;13.57;;;;;;;14.24;63.96;95542.41;5084965;28;20532;-67
2021/04/20 10:39:20;;;;;;;12.57;11.37;;;;;;;14.15;65.14;95550.81;5101238;28;20221;-67
2021/04/20 10:41:48;;;;;;;14.60;13.30;;;;;;;13.61;65.26;95552.72;5087478;28;20248;-66
2021/04/20 10:44:16;;;;;;;13.97;12.60;;;;;;;13.27;66.76;95545.00;5087796;28;20221;-67
2021/04/20 10:46:46;;;;;;;16.83;15.17;;;;;;;13.02;66.12;95542.09;5085364;28;20236;-67
2021/04/20 10:49:17;;;;;;;14.60;13.40;;;;;;;13.16;66.64;95546.38;5085303;28;20285;-67
2021/04/20 10:51:46;;;;;;;12.10;11.10;;;;;;;13.27;66.55;95551.13;5105969;28;20458;-67
2021/04/20 10:54:15;;;;;;;12.97;11.60;;;;;;;13.29;64.39;95538.47;5100592;28;20454;-67
2021/04/20 10:56:50;;;;;;;11.67;10.67;;;;;;;12.97;65.48;95547.97;5085855;28;20230;-67
2021/04/20 10:59:33;;;;;;;13.20;12.10;;;;;;;12.92;65.61;95541.66;5084902;28;20217;-67
2021/04/20 11:02:03;;;;;;;12.57;11.17;;;;;;;13.09;66.32;95542.91;5106119;28;20236;-66
2021/04/20 11:04:33;;;;;;;13.70;12.43;;;;;;;12.71;66.65;95535.50;5078418;28;20223;-67
2021/04/20 11:07:18;;;;;;;13.20;12.00;;;;;;;12.86;65.54;95542.47;5105511;28;20282;-67
2021/04/20 11:09:46;;;;;;;10.23;9.23;;;;;;;12.70;64.91;95528.56;5077071;28;20229;-67
2021/04/20 11:12:17;;;;;;;11.23;10.27;;;;;;;12.65;66.83;95535.50;5080150;28;20763;-67
2021/04/20 11:14:47;;;;;;;11.33;10.33;;;;;;;12.70;66.43;95536.50;5085285;28;20253;-67
2021/04/20 11:17:31;;;;;;;10.87;9.87;;;;;;;12.88;65.12;95524.53;5092043;28;20657;-67
2021/04/20 11:20:08;;;;;;;11.43;10.43;;;;;;;13.00;66.08;95534.34;5104361;28;20483;-67
2021/04/20 11:22:47;;;;;;;11.10;10.00;;;;;;;13.26;64.87;95533.59;5105632;28;20228;-66
2021/04/20 11:25:22;;;;;;;12.17;11.07;;;;;;;13.38;63.49;95524.00;5105255;28;20782;-67
2021/04/20 11:27:54;;;;;;;12.13;11.10;;;;;;;13.54;64.38;95519.31;5102276;28;20274;-67
2021/04/20 11:30:30;;;;;;;12.40;11.07;;;;;;;13.77;63.77;95513.56;5082841;28;20304;-67
2021/04/20 11:32:59;;;;;;;10.13;9.13;;;;;;;13.88;63.71;95516.38;5086362;28;20233;-66
2021/04/20 11:35:27;;;;;;;11.73;10.73;;;;;;;13.88;63.33;95519.03;5091072;28;20248;-67
2021/04/20 11:38:00;;;;;;;12.53;11.40;;;;;;;13.90;61.78;95509.03;5104581;28;20256;-67
2021/04/20 11:40:32;;;;;;;11.13;10.23;;;;;;;13.85;61.82;95506.19;5086511;28;20924;-67